EGCN

Details ICAO EGCN (DSA)
Name Doncaster Sheffield
Region United Kingdom
Timezone Europe/London (UTC+1.0)
Plans Departing 424
Arriving 280
Stats Elevation 55 ft / 17 m (AMSL)
Location 53.475300° -1.004130°
Runways 1
Magnetic Variation 0.774° W
Sunrise 2019-05-23 03:53:48 UTC / 2019-05-23 04:53:48 Local
Sunset 2019-05-23 20:10:33 UTC / 2019-05-23 21:10:33 Local
Advertisement - Login to hide

Runways

ID Width Length Bearing (true/mag) Surface Threshold Overrun Markings Lighting
02 197 ft / 60 m 9,488 ft / 2,892 m 17.63° / 18.40° ASPHALT 499 ft / 152 m 0 ft / 0 m PREC-APP EDGE THRESHOLD MALS REIL-OMNI
20 197 ft / 60 m 9,488 ft / 2,892 m 197.64° / 198.41° ASPHALT 505 ft / 154 m 0 ft / 0 m APP EDGE THRESHOLD MALS REIL-OMNI

Approach Navaids

Runway Type Ident Frequency Range Bearing (true/mag) Slope Elevation
02 GS IFIN 110.95 MHz 25 nm / 46 km 17.63° / 18.40° 3.10° 55 ft / 17 m (AMSL)
02 LOC-ILS IFIN 110.95 MHz 25 nm / 46 km 17.63° / 18.40° - 55 ft / 17 m (AMSL)
20 GS IFNL 110.95 MHz 25 nm / 46 km 197.63° / 198.40° 3.00° 55 ft / 17 m (AMSL)
20 DME IFNL 110.95 MHz 18 nm / 33 km - - 11 ft / 3 m (AMSL)
20 LOC-ILS IFNL 110.95 MHz 25 nm / 46 km 197.63° / 198.40° - 55 ft / 17 m (AMSL)

Map

Weather


0- 5 10 15 20 25 30 35+ Temperature / °C

Clouds and Precipitation
Forecast for 2019-05-23 18:00 UTC. Updated 4 hours ago

Ground ~20,000 ft ~40,000 ft Winds

METAR

EGCN 231850Z 30012KT CAVOK 18/06 Q1015

TAF

TAF EGCN 231654Z 2318/2418 28009KT 9999 FEW045= TAF EGGP 231654Z 2318/2418 30009KT 9999 FEW030 PROB30 TEMPO 2403/2406 BKN010 PROB40 TEMPO 2412/2415 BKN014

Frequencies

Recorded 134.95 MHz Doncaster Info
Tower 128.77 MHz Doncaster Tower
Warning: Do not use this data for real-world aviation or navigation. No guarantee of current accuracy is given.